sensor_id;sensor_type;location;lat;lon;timestamp;P1;durP1;ratioP1;P2;durP2;ratioP2
29202;SDS011;16245;51.170;4.884;2022-08-23T00:01:29;9.18;;;4.43;;
29202;SDS011;16245;51.170;4.884;2022-08-23T00:03:58;6.28;;;4.47;;
29202;SDS011;16245;51.170;4.884;2022-08-23T00:06:26;8.30;;;4.22;;
29202;SDS011;16245;51.170;4.884;2022-08-23T00:08:53;7.93;;;4.78;;
29202;SDS011;16245;51.170;4.884;2022-08-23T00:13:57;8.63;;;5.22;;
29202;SDS011;16245;51.170;4.884;2022-08-23T00:16:25;9.30;;;4.85;;
29202;SDS011;16245;51.170;4.884;2022-08-23T00:18:51;8.60;;;4.70;;
29202;SDS011;16245;51.170;4.884;2022-08-23T00:21:17;7.57;;;3.83;;
29202;SDS011;16245;51.170;4.884;2022-08-23T00:23:43;6.20;;;3.83;;
29202;SDS011;16245;51.170;4.884;2022-08-23T00:26:08;5.53;;;3.72;;
29202;SDS011;16245;51.170;4.884;2022-08-23T00:28:34;6.90;;;4.53;;
29202;SDS011;16245;51.170;4.884;2022-08-23T00:30:59;5.93;;;4.25;;
29202;SDS011;16245;51.170;4.884;2022-08-23T00:33:25;5.85;;;4.30;;
29202;SDS011;16245;51.170;4.884;2022-08-23T00:35:51;6.22;;;4.15;;
29202;SDS011;16245;51.170;4.884;2022-08-23T00:38:17;8.57;;;4.30;;
29202;SDS011;16245;51.170;4.884;2022-08-23T00:40:44;6.47;;;4.43;;
29202;SDS011;16245;51.170;4.884;2022-08-23T00:43:12;5.93;;;4.55;;
29202;SDS011;16245;51.170;4.884;2022-08-23T00:48:51;6.93;;;4.43;;
29202;SDS011;16245;51.170;4.884;2022-08-23T00:53:54;7.00;;;4.30;;
29202;SDS011;16245;51.170;4.884;2022-08-23T00:56:23;7.70;;;3.78;;
29202;SDS011;16245;51.170;4.884;2022-08-23T00:58:51;9.25;;;4.50;;
29202;SDS011;16245;51.170;4.884;2022-08-23T01:01:17;7.32;;;4.78;;
29202;SDS011;16245;51.170;4.884;2022-08-23T01:03:44;7.22;;;4.47;;
29202;SDS011;16245;51.170;4.884;2022-08-23T01:06:15;11.57;;;4.05;;
29202;SDS011;16245;51.170;4.884;2022-08-23T01:08:51;6.95;;;4.38;;
29202;SDS011;16245;51.170;4.884;2022-08-23T01:11:32;7.05;;;4.43;;
29202;SDS011;16245;51.170;4.884;2022-08-23T01:14:10;8.10;;;4.25;;
29202;SDS011;16245;51.170;4.884;2022-08-23T01:16:44;10.13;;;5.35;;
29202;SDS011;16245;51.170;4.884;2022-08-23T01:19:22;6.95;;;5.13;;
29202;SDS011;16245;51.170;4.884;2022-08-23T01:24:33;6.85;;;4.40;;
29202;SDS011;16245;51.170;4.884;2022-08-23T01:27:00;5.75;;;4.25;;
29202;SDS011;16245;51.170;4.884;2022-08-23T01:29:26;8.05;;;4.15;;
29202;SDS011;16245;51.170;4.884;2022-08-23T01:31:52;8.35;;;4.43;;
29202;SDS011;16245;51.170;4.884;2022-08-23T01:34:18;7.93;;;4.93;;
29202;SDS011;16245;51.170;4.884;2022-08-23T01:36:50;5.32;;;4.35;;
29202;SDS011;16245;51.170;4.884;2022-08-23T01:39:17;8.95;;;4.32;;
29202;SDS011;16245;51.170;4.884;2022-08-23T01:41:42;6.55;;;4.57;;
29202;SDS011;16245;51.170;4.884;2022-08-23T01:44:08;8.05;;;4.28;;
29202;SDS011;16245;51.170;4.884;2022-08-23T01:46:34;7.95;;;4.40;;
29202;SDS011;16245;51.170;4.884;2022-08-23T01:49:01;6.25;;;3.90;;
29202;SDS011;16245;51.170;4.884;2022-08-23T01:51:28;6.18;;;4.18;;
29202;SDS011;16245;51.170;4.884;2022-08-23T01:53:54;6.57;;;3.97;;
29202;SDS011;16245;51.170;4.884;2022-08-23T01:56:20;7.68;;;4.80;;
29202;SDS011;16245;51.170;4.884;2022-08-23T01:58:47;8.32;;;4.60;;
29202;SDS011;16245;51.170;4.884;2022-08-23T02:01:13;8.00;;;4.85;;
29202;SDS011;16245;51.170;4.884;2022-08-23T02:03:39;5.78;;;4.35;;
29202;SDS011;16245;51.170;4.884;2022-08-23T02:06:05;9.35;;;4.68;;
29202;SDS011;16245;51.170;4.884;2022-08-23T02:08:30;9.07;;;4.75;;
29202;SDS011;16245;51.170;4.884;2022-08-23T02:11:16;5.82;;;4.68;;
29202;SDS011;16245;51.170;4.884;2022-08-23T02:13:46;9.25;;;5.45;;
29202;SDS011;16245;51.170;4.884;2022-08-23T02:16:12;6.90;;;5.10;;
29202;SDS011;16245;51.170;4.884;2022-08-23T02:18:49;7.40;;;4.55;;
29202;SDS011;16245;51.170;4.884;2022-08-23T02:21:15;6.10;;;5.22;;
29202;SDS011;16245;51.170;4.884;2022-08-23T02:23:41;7.75;;;5.13;;
29202;SDS011;16245;51.170;4.884;2022-08-23T02:26:07;7.22;;;5.13;;
29202;SDS011;16245;51.170;4.884;2022-08-23T02:28:33;5.47;;;4.28;;
29202;SDS011;16245;51.170;4.884;2022-08-23T02:30:59;8.55;;;5.63;;
29202;SDS011;16245;51.170;4.884;2022-08-23T02:33:24;8.40;;;5.13;;
29202;SDS011;16245;51.170;4.884;2022-08-23T02:35:50;7.45;;;4.65;;
29202;SDS011;16245;51.170;4.884;2022-08-23T02:38:16;6.00;;;4.88;;
29202;SDS011;16245;51.170;4.884;2022-08-23T02:40:42;6.70;;;4.72;;
29202;SDS011;16245;51.170;4.884;2022-08-23T02:43:08;7.85;;;5.25;;
29202;SDS011;16245;51.170;4.884;2022-08-23T02:45:34;7.25;;;4.50;;
29202;SDS011;16245;51.170;4.884;2022-08-23T02:48:01;5.88;;;4.55;;
29202;SDS011;16245;51.170;4.884;2022-08-23T02:50:27;9.88;;;5.20;;
29202;SDS011;16245;51.170;4.884;2022-08-23T02:52:53;8.07;;;5.63;;
29202;SDS011;16245;51.170;4.884;2022-08-23T02:55:19;8.52;;;5.60;;
29202;SDS011;16245;51.170;4.884;2022-08-23T02:57:46;8.65;;;6.25;;
29202;SDS011;16245;51.170;4.884;2022-08-23T03:00:12;8.07;;;5.72;;
29202;SDS011;16245;51.170;4.884;2022-08-23T03:02:39;6.45;;;5.50;;
29202;SDS011;16245;51.170;4.884;2022-08-23T03:05:06;7.13;;;5.18;;
29202;SDS011;16245;51.170;4.884;2022-08-23T03:07:33;8.70;;;5.25;;
29202;SDS011;16245;51.170;4.884;2022-08-23T03:09:59;5.63;;;5.05;;
29202;SDS011;16245;51.170;4.884;2022-08-23T03:12:25;6.55;;;4.85;;
29202;SDS011;16245;51.170;4.884;2022-08-23T03:14:53;7.82;;;5.35;;
29202;SDS011;16245;51.170;4.884;2022-08-23T03:17:20;9.45;;;5.65;;
29202;SDS011;16245;51.170;4.884;2022-08-23T03:19:46;6.07;;;5.47;;
29202;SDS011;16245;51.170;4.884;2022-08-23T03:22:12;8.48;;;5.55;;
29202;SDS011;16245;51.170;4.884;2022-08-23T03:24:38;5.97;;;5.03;;
29202;SDS011;16245;51.170;4.884;2022-08-23T03:27:03;7.90;;;5.75;;
29202;SDS011;16245;51.170;4.884;2022-08-23T03:29:31;7.45;;;5.55;;
29202;SDS011;16245;51.170;4.884;2022-08-23T03:31:57;6.45;;;5.43;;
29202;SDS011;16245;51.170;4.884;2022-08-23T03:34:23;6.43;;;5.25;;
29202;SDS011;16245;51.170;4.884;2022-08-23T03:36:49;7.22;;;4.90;;
29202;SDS011;16245;51.170;4.884;2022-08-23T03:39:15;12.27;;;5.03;;
29202;SDS011;16245;51.170;4.884;2022-08-23T03:41:41;6.43;;;5.20;;
29202;SDS011;16245;51.170;4.884;2022-08-23T03:44:06;7.95;;;6.18;;
29202;SDS011;16245;51.170;4.884;2022-08-23T03:46:32;9.55;;;5.07;;
29202;SDS011;16245;51.170;4.884;2022-08-23T03:48:59;5.65;;;5.10;;
29202;SDS011;16245;51.170;4.884;2022-08-23T03:51:26;7.50;;;5.95;;
29202;SDS011;16245;51.170;4.884;2022-08-23T03:53:54;6.95;;;6.03;;
29202;SDS011;16245;51.170;4.884;2022-08-23T03:56:25;8.40;;;5.30;;
29202;SDS011;16245;51.170;4.884;2022-08-23T03:58:59;8.02;;;5.30;;
29202;SDS011;16245;51.170;4.884;2022-08-23T04:01:28;10.13;;;5.80;;
29202;SDS011;16245;51.170;4.884;2022-08-23T04:03:53;6.15;;;5.65;;
29202;SDS011;16245;51.170;4.884;2022-08-23T04:06:21;8.88;;;5.90;;
29202;SDS011;16245;51.170;4.884;2022-08-23T04:08:47;6.75;;;5.60;;
29202;SDS011;16245;51.170;4.884;2022-08-23T04:11:12;7.47;;;5.47;;
29202;SDS011;16245;51.170;4.884;2022-08-23T04:13:39;10.32;;;5.88;;
29202;SDS011;16245;51.170;4.884;2022-08-23T04:16:05;7.20;;;5.88;;
29202;SDS011;16245;51.170;4.884;2022-08-23T04:18:33;10.00;;;5.63;;
29202;SDS011;16245;51.170;4.884;2022-08-23T04:21:00;7.43;;;5.85;;
29202;SDS011;16245;51.170;4.884;2022-08-23T04:23:29;7.65;;;5.95;;
29202;SDS011;16245;51.170;4.884;2022-08-23T04:25:55;10.45;;;6.22;;
29202;SDS011;16245;51.170;4.884;2022-08-23T04:28:21;8.70;;;6.05;;
29202;SDS011;16245;51.170;4.884;2022-08-23T04:30:47;9.50;;;5.43;;
29202;SDS011;16245;51.170;4.884;2022-08-23T04:33:15;11.65;;;6.13;;
29202;SDS011;16245;51.170;4.884;2022-08-23T04:35:41;7.60;;;5.57;;
29202;SDS011;16245;51.170;4.884;2022-08-23T04:38:07;12.65;;;7.25;;
29202;SDS011;16245;51.170;4.884;2022-08-23T04:40:32;8.93;;;6.45;;
29202;SDS011;16245;51.170;4.884;2022-08-23T04:43:17;9.27;;;6.30;;
29202;SDS011;16245;51.170;4.884;2022-08-23T04:45:43;12.25;;;6.43;;
29202;SDS011;16245;51.170;4.884;2022-08-23T04:48:09;7.47;;;5.72;;
29202;SDS011;16245;51.170;4.884;2022-08-23T04:50:35;9.07;;;6.72;;
29202;SDS011;16245;51.170;4.884;2022-08-23T04:53:01;11.90;;;6.82;;
29202;SDS011;16245;51.170;4.884;2022-08-23T04:55:27;8.48;;;6.93;;
29202;SDS011;16245;51.170;4.884;2022-08-23T04:57:53;9.15;;;6.90;;
29202;SDS011;16245;51.170;4.884;2022-08-23T05:00:19;9.27;;;6.60;;
29202;SDS011;16245;51.170;4.884;2022-08-23T05:02:45;8.98;;;7.95;;
29202;SDS011;16245;51.170;4.884;2022-08-23T05:05:11;10.98;;;8.20;;
29202;SDS011;16245;51.170;4.884;2022-08-23T05:07:37;14.52;;;9.68;;
29202;SDS011;16245;51.170;4.884;2022-08-23T05:10:04;13.10;;;9.40;;
29202;SDS011;16245;51.170;4.884;2022-08-23T05:12:31;17.08;;;10.20;;
29202;SDS011;16245;51.170;4.884;2022-08-23T05:14:57;18.50;;;10.98;;
29202;SDS011;16245;51.170;4.884;2022-08-23T05:17:23;16.23;;;12.32;;
29202;SDS011;16245;51.170;4.884;2022-08-23T05:19:49;16.13;;;11.52;;
29202;SDS011;16245;51.170;4.884;2022-08-23T05:22:14;16.73;;;13.60;;
29202;SDS011;16245;51.170;4.884;2022-08-23T05:24:40;22.92;;;16.63;;
29202;SDS011;16245;51.170;4.884;2022-08-23T05:27:06;14.15;;;12.48;;
29202;SDS011;16245;51.170;4.884;2022-08-23T05:29:31;21.83;;;16.60;;
29202;SDS011;16245;51.170;4.884;2022-08-23T05:31:57;26.35;;;18.50;;
29202;SDS011;16245;51.170;4.884;2022-08-23T05:34:23;21.67;;;16.15;;
29202;SDS011;16245;51.170;4.884;2022-08-23T05:36:49;20.85;;;15.82;;
29202;SDS011;16245;51.170;4.884;2022-08-23T05:39:16;29.70;;;18.38;;
29202;SDS011;16245;51.170;4.884;2022-08-23T05:41:42;24.65;;;19.50;;
29202;SDS011;16245;51.170;4.884;2022-08-23T05:44:08;31.00;;;18.45;;
29202;SDS011;16245;51.170;4.884;2022-08-23T05:46:34;23.67;;;18.45;;
29202;SDS011;16245;51.170;4.884;2022-08-23T05:49:01;27.33;;;19.40;;
29202;SDS011;16245;51.170;4.884;2022-08-23T05:51:28;28.15;;;18.38;;
29202;SDS011;16245;51.170;4.884;2022-08-23T05:53:57;24.50;;;18.23;;
29202;SDS011;16245;51.170;4.884;2022-08-23T05:56:25;24.25;;;18.83;;
29202;SDS011;16245;51.170;4.884;2022-08-23T05:58:55;25.08;;;17.50;;
29202;SDS011;16245;51.170;4.884;2022-08-23T06:01:22;29.10;;;18.60;;
29202;SDS011;16245;51.170;4.884;2022-08-23T06:03:49;24.35;;;18.77;;
29202;SDS011;16245;51.170;4.884;2022-08-23T06:06:15;23.17;;;17.80;;
29202;SDS011;16245;51.170;4.884;2022-08-23T06:08:42;25.00;;;18.15;;
29202;SDS011;16245;51.170;4.884;2022-08-23T06:11:19;25.13;;;17.95;;
29202;SDS011;16245;51.170;4.884;2022-08-23T06:13:50;26.55;;;17.80;;
29202;SDS011;16245;51.170;4.884;2022-08-23T06:16:25;24.83;;;17.35;;
29202;SDS011;16245;51.170;4.884;2022-08-23T06:18:54;25.45;;;17.02;;
29202;SDS011;16245;51.170;4.884;2022-08-23T06:21:21;25.45;;;18.55;;
29202;SDS011;16245;51.170;4.884;2022-08-23T06:23:48;23.70;;;17.05;;
29202;SDS011;16245;51.170;4.884;2022-08-23T06:26:18;22.15;;;14.98;;
29202;SDS011;16245;51.170;4.884;2022-08-23T06:28:58;24.65;;;16.73;;
29202;SDS011;16245;51.170;4.884;2022-08-23T06:31:26;21.05;;;15.75;;
29202;SDS011;16245;51.170;4.884;2022-08-23T06:34:14;21.88;;;16.55;;
29202;SDS011;16245;51.170;4.884;2022-08-23T06:36:44;24.08;;;17.30;;
29202;SDS011;16245;51.170;4.884;2022-08-23T06:39:16;20.02;;;15.15;;
29202;SDS011;16245;51.170;4.884;2022-08-23T06:41:43;29.52;;;17.55;;
29202;SDS011;16245;51.170;4.884;2022-08-23T06:44:09;25.13;;;15.38;;
29202;SDS011;16245;51.170;4.884;2022-08-23T06:46:36;26.30;;;16.15;;
29202;SDS011;16245;51.170;4.884;2022-08-23T06:49:03;21.30;;;14.93;;
29202;SDS011;16245;51.170;4.884;2022-08-23T06:51:32;26.10;;;15.65;;
29202;SDS011;16245;51.170;4.884;2022-08-23T06:54:04;18.20;;;14.32;;
29202;SDS011;16245;51.170;4.884;2022-08-23T06:56:32;20.55;;;13.82;;
29202;SDS011;16245;51.170;4.884;2022-08-23T06:58:59;22.20;;;14.82;;
29202;SDS011;16245;51.170;4.884;2022-08-23T07:04:39;17.98;;;12.35;;
29202;SDS011;16245;51.170;4.884;2022-08-23T07:07:05;24.52;;;14.27;;
29202;SDS011;16245;51.170;4.884;2022-08-23T07:09:31;16.95;;;11.05;;
29202;SDS011;16245;51.170;4.884;2022-08-23T07:11:57;21.98;;;12.77;;
29202;SDS011;16245;51.170;4.884;2022-08-23T07:14:24;16.15;;;10.73;;
29202;SDS011;16245;51.170;4.884;2022-08-23T07:16:52;16.45;;;10.93;;
29202;SDS011;16245;51.170;4.884;2022-08-23T07:19:21;17.08;;;11.30;;
29202;SDS011;16245;51.170;4.884;2022-08-23T07:21:48;17.63;;;11.02;;
29202;SDS011;16245;51.170;4.884;2022-08-23T07:24:15;17.70;;;10.75;;
29202;SDS011;16245;51.170;4.884;2022-08-23T07:26:42;14.85;;;9.25;;
29202;SDS011;16245;51.170;4.884;2022-08-23T07:29:09;18.33;;;10.30;;
29202;SDS011;16245;51.170;4.884;2022-08-23T07:31:40;17.17;;;9.38;;
29202;SDS011;16245;51.170;4.884;2022-08-23T07:34:08;15.43;;;8.98;;
29202;SDS011;16245;51.170;4.884;2022-08-23T07:36:36;14.02;;;9.45;;
29202;SDS011;16245;51.170;4.884;2022-08-23T07:39:04;17.17;;;9.25;;
29202;SDS011;16245;51.170;4.884;2022-08-23T07:41:31;16.63;;;9.27;;
29202;SDS011;16245;51.170;4.884;2022-08-23T07:43:58;15.55;;;10.25;;
29202;SDS011;16245;51.170;4.884;2022-08-23T07:46:28;12.60;;;8.63;;
29202;SDS011;16245;51.170;4.884;2022-08-23T07:48:55;11.07;;;8.30;;
29202;SDS011;16245;51.170;4.884;2022-08-23T07:51:22;11.98;;;6.97;;
29202;SDS011;16245;51.170;4.884;2022-08-23T07:53:49;8.50;;;6.70;;
29202;SDS011;16245;51.170;4.884;2022-08-23T07:56:16;9.80;;;6.32;;
29202;SDS011;16245;51.170;4.884;2022-08-23T07:58:43;10.43;;;4.45;;
29202;SDS011;16245;51.170;4.884;2022-08-23T08:01:09;8.50;;;4.65;;
29202;SDS011;16245;51.170;4.884;2022-08-23T08:03:39;6.25;;;3.90;;
29202;SDS011;16245;51.170;4.884;2022-08-23T08:06:10;7.85;;;4.30;;
29202;SDS011;16245;51.170;4.884;2022-08-23T08:08:39;8.88;;;5.20;;
29202;SDS011;16245;51.170;4.884;2022-08-23T08:11:06;11.02;;;4.18;;
29202;SDS011;16245;51.170;4.884;2022-08-23T08:13:36;11.70;;;4.60;;
29202;SDS011;16245;51.170;4.884;2022-08-23T08:16:03;7.25;;;3.75;;
29202;SDS011;16245;51.170;4.884;2022-08-23T08:18:29;10.35;;;5.18;;
29202;SDS011;16245;51.170;4.884;2022-08-23T08:20:54;12.57;;;4.72;;
29202;SDS011;16245;51.170;4.884;2022-08-23T08:23:20;10.48;;;3.95;;
29202;SDS011;16245;51.170;4.884;2022-08-23T08:25:46;7.57;;;4.03;;
29202;SDS011;16245;51.170;4.884;2022-08-23T08:28:12;9.20;;;3.83;;
29202;SDS011;16245;51.170;4.884;2022-08-23T08:30:37;10.48;;;4.65;;
29202;SDS011;16245;51.170;4.884;2022-08-23T08:33:03;8.85;;;4.13;;
29202;SDS011;16245;51.170;4.884;2022-08-23T08:35:29;10.93;;;4.75;;
29202;SDS011;16245;51.170;4.884;2022-08-23T08:37:55;8.25;;;3.53;;
29202;SDS011;16245;51.170;4.884;2022-08-23T08:40:26;6.68;;;3.80;;
29202;SDS011;16245;51.170;4.884;2022-08-23T08:43:14;7.38;;;3.35;;
29202;SDS011;16245;51.170;4.884;2022-08-23T08:48:39;10.45;;;4.00;;
29202;SDS011;16245;51.170;4.884;2022-08-23T08:51:13;13.27;;;3.55;;
29202;SDS011;16245;51.170;4.884;2022-08-23T08:53:47;9.32;;;3.80;;
29202;SDS011;16245;51.170;4.884;2022-08-23T08:56:25;8.25;;;2.75;;
29202;SDS011;16245;51.170;4.884;2022-08-23T08:59:00;6.88;;;2.88;;
29202;SDS011;16245;51.170;4.884;2022-08-23T09:01:29;6.80;;;2.47;;
29202;SDS011;16245;51.170;4.884;2022-08-23T09:03:56;6.78;;;3.00;;
29202;SDS011;16245;51.170;4.884;2022-08-23T09:06:39;5.60;;;2.30;;
29202;SDS011;16245;51.170;4.884;2022-08-23T09:09:28;4.22;;;1.80;;
29202;SDS011;16245;51.170;4.884;2022-08-23T09:17:29;5.18;;;2.00;;
29202;SDS011;16245;51.170;4.884;2022-08-23T09:19:59;4.18;;;1.60;;
29202;SDS011;16245;51.170;4.884;2022-08-23T09:22:42;5.70;;;1.80;;
29202;SDS011;16245;51.170;4.884;2022-08-23T09:25:11;4.07;;;1.67;;
29202;SDS011;16245;51.170;4.884;2022-08-23T09:27:38;3.28;;;1.73;;
29202;SDS011;16245;51.170;4.884;2022-08-23T09:30:05;4.55;;;1.45;;
29202;SDS011;16245;51.170;4.884;2022-08-23T09:32:37;5.05;;;1.88;;
29202;SDS011;16245;51.170;4.884;2022-08-23T09:37:31;4.15;;;1.48;;
29202;SDS011;16245;51.170;4.884;2022-08-23T09:40:20;4.88;;;1.83;;
29202;SDS011;16245;51.170;4.884;2022-08-23T09:43:04;4.40;;;1.80;;
29202;SDS011;16245;51.170;4.884;2022-08-23T09:45:38;4.93;;;1.50;;
29202;SDS011;16245;51.170;4.884;2022-08-23T09:51:17;4.85;;;1.83;;
29202;SDS011;16245;51.170;4.884;2022-08-23T09:53:51;3.63;;;1.90;;
29202;SDS011;16245;51.170;4.884;2022-08-23T09:56:28;3.85;;;1.52;;
29202;SDS011;16245;51.170;4.884;2022-08-23T09:58:56;9.02;;;1.92;;
29202;SDS011;16245;51.170;4.884;2022-08-23T10:01:23;6.20;;;1.65;;
29202;SDS011;16245;51.170;4.884;2022-08-23T10:04:08;3.95;;;1.88;;
29202;SDS011;16245;51.170;4.884;2022-08-23T10:06:40;5.72;;;1.73;;
29202;SDS011;16245;51.170;4.884;2022-08-23T10:09:14;4.50;;;2.30;;
29202;SDS011;16245;51.170;4.884;2022-08-23T10:11:49;3.53;;;1.85;;
29202;SDS011;16245;51.170;4.884;2022-08-23T10:14:15;5.53;;;2.15;;
29202;SDS011;16245;51.170;4.884;2022-08-23T10:19:39;4.90;;;2.10;;
29202;SDS011;16245;51.170;4.884;2022-08-23T10:22:23;2.47;;;1.58;;
29202;SDS011;16245;51.170;4.884;2022-08-23T10:30:52;5.40;;;1.90;;
29202;SDS011;16245;51.170;4.884;2022-08-23T10:33:48;6.55;;;2.10;;
29202;SDS011;16245;51.170;4.884;2022-08-23T10:39:25;6.95;;;1.98;;
29202;SDS011;16245;51.170;4.884;2022-08-23T10:49:43;7.18;;;1.77;;
29202;SDS011;16245;51.170;4.884;2022-08-23T10:52:14;2.30;;;1.58;;
29202;SDS011;16245;51.170;4.884;2022-08-23T10:54:46;6.50;;;1.42;;
29202;SDS011;16245;51.170;4.884;2022-08-23T10:57:30;2.42;;;1.25;;
29202;SDS011;16245;51.170;4.884;2022-08-23T10:59:59;2.63;;;1.30;;
29202;SDS011;16245;51.170;4.884;2022-08-23T11:02:41;2.53;;;1.38;;
29202;SDS011;16245;51.170;4.884;2022-08-23T11:05:34;1.45;;;1.33;;
29202;SDS011;16245;51.170;4.884;2022-08-23T11:08:10;3.88;;;1.60;;
29202;SDS011;16245;51.170;4.884;2022-08-23T11:10:54;3.22;;;1.98;;
29202;SDS011;16245;51.170;4.884;2022-08-23T11:13:24;3.83;;;1.58;;
29202;SDS011;16245;51.170;4.884;2022-08-23T11:15:58;5.85;;;1.80;;
29202;SDS011;16245;51.170;4.884;2022-08-23T11:28:51;3.75;;;1.42;;
29202;SDS011;16245;51.170;4.884;2022-08-23T11:31:37;3.22;;;1.58;;
29202;SDS011;16245;51.170;4.884;2022-08-23T11:42:23;2.58;;;1.20;;
29202;SDS011;16245;51.170;4.884;2022-08-23T11:44:49;6.47;;;1.42;;
29202;SDS011;16245;51.170;4.884;2022-08-23T11:47:16;8.15;;;1.77;;
29202;SDS011;16245;51.170;4.884;2022-08-23T11:50:24;4.40;;;1.90;;
29202;SDS011;16245;51.170;4.884;2022-08-23T11:53:15;2.65;;;1.10;;
29202;SDS011;16245;51.170;4.884;2022-08-23T11:55:49;6.82;;;1.63;;
29202;SDS011;16245;51.170;4.884;2022-08-23T12:01:32;2.63;;;1.60;;
29202;SDS011;16245;51.170;4.884;2022-08-23T12:04:04;3.45;;;1.60;;
29202;SDS011;16245;51.170;4.884;2022-08-23T12:06:38;3.53;;;1.25;;
29202;SDS011;16245;51.170;4.884;2022-08-23T12:16:55;3.00;;;1.33;;
29202;SDS011;16245;51.170;4.884;2022-08-23T12:22:18;5.55;;;1.00;;
29202;SDS011;16245;51.170;4.884;2022-08-23T12:24:53;6.85;;;2.92;;
29202;SDS011;16245;51.170;4.884;2022-08-23T12:27:29;2.10;;;0.90;;
29202;SDS011;16245;51.170;4.884;2022-08-23T12:35:19;3.28;;;1.02;;
29202;SDS011;16245;51.170;4.884;2022-08-23T12:40:35;1.25;;;0.90;;
29202;SDS011;16245;51.170;4.884;2022-08-23T12:45:56;1.10;;;0.75;;
29202;SDS011;16245;51.170;4.884;2022-08-23T12:48:24;3.03;;;1.20;;
29202;SDS011;16245;51.170;4.884;2022-08-23T12:51:01;2.35;;;1.02;;
29202;SDS011;16245;51.170;4.884;2022-08-23T12:53:36;1.27;;;0.85;;
29202;SDS011;16245;51.170;4.884;2022-08-23T12:56:23;3.42;;;0.80;;
29202;SDS011;16245;51.170;4.884;2022-08-23T12:58:51;2.47;;;0.75;;
29202;SDS011;16245;51.170;4.884;2022-08-23T13:01:24;2.17;;;0.80;;
29202;SDS011;16245;51.170;4.884;2022-08-23T13:03:53;2.33;;;0.90;;
29202;SDS011;16245;51.170;4.884;2022-08-23T13:06:42;3.55;;;0.70;;
29202;SDS011;16245;51.170;4.884;2022-08-23T13:11:43;2.53;;;1.05;;
29202;SDS011;16245;51.170;4.884;2022-08-23T13:14:21;3.75;;;1.10;;
29202;SDS011;16245;51.170;4.884;2022-08-23T13:16:47;3.90;;;1.25;;
29202;SDS011;16245;51.170;4.884;2022-08-23T13:19:15;1.52;;;1.00;;
29202;SDS011;16245;51.170;4.884;2022-08-23T13:21:43;1.67;;;0.95;;
29202;SDS011;16245;51.170;4.884;2022-08-23T13:24:26;2.88;;;1.20;;
29202;SDS011;16245;51.170;4.884;2022-08-23T13:27:10;3.70;;;1.60;;
29202;SDS011;16245;51.170;4.884;2022-08-23T13:29:46;3.13;;;0.88;;
29202;SDS011;16245;51.170;4.884;2022-08-23T13:32:37;3.03;;;1.00;;
29202;SDS011;16245;51.170;4.884;2022-08-23T13:40:32;2.50;;;0.98;;
29202;SDS011;16245;51.170;4.884;2022-08-23T13:43:04;2.25;;;0.68;;
29202;SDS011;16245;51.170;4.884;2022-08-23T13:45:43;0.93;;;0.70;;
29202;SDS011;16245;51.170;4.884;2022-08-23T13:48:53;2.13;;;0.75;;
29202;SDS011;16245;51.170;4.884;2022-08-23T13:54:00;1.75;;;0.70;;
29202;SDS011;16245;51.170;4.884;2022-08-23T13:56:29;1.25;;;0.47;;
29202;SDS011;16245;51.170;4.884;2022-08-23T13:59:05;1.85;;;0.80;;
29202;SDS011;16245;51.170;4.884;2022-08-23T14:01:40;0.95;;;0.80;;
29202;SDS011;16245;51.170;4.884;2022-08-23T14:04:05;1.27;;;0.70;;
29202;SDS011;16245;51.170;4.884;2022-08-23T14:06:31;1.50;;;0.60;;
29202;SDS011;16245;51.170;4.884;2022-08-23T14:08:57;2.67;;;0.80;;
29202;SDS011;16245;51.170;4.884;2022-08-23T14:11:22;1.42;;;0.70;;
29202;SDS011;16245;51.170;4.884;2022-08-23T14:13:48;5.20;;;0.65;;
29202;SDS011;16245;51.170;4.884;2022-08-23T14:16:20;0.63;;;0.63;;
29202;SDS011;16245;51.170;4.884;2022-08-23T14:18:52;2.25;;;0.60;;
29202;SDS011;16245;51.170;4.884;2022-08-23T14:21:17;1.48;;;0.80;;
29202;SDS011;16245;51.170;4.884;2022-08-23T14:23:43;1.80;;;1.20;;
29202;SDS011;16245;51.170;4.884;2022-08-23T14:26:09;0.50;;;0.40;;
29202;SDS011;16245;51.170;4.884;2022-08-23T14:28:41;0.90;;;0.43;;
29202;SDS011;16245;51.170;4.884;2022-08-23T14:31:07;2.00;;;0.60;;
29202;SDS011;16245;51.170;4.884;2022-08-23T14:33:33;0.63;;;0.50;;
29202;SDS011;16245;51.170;4.884;2022-08-23T14:35:59;4.13;;;0.80;;
29202;SDS011;16245;51.170;4.884;2022-08-23T14:38:25;0.80;;;0.70;;
29202;SDS011;16245;51.170;4.884;2022-08-23T14:40:52;1.48;;;0.50;;
29202;SDS011;16245;51.170;4.884;2022-08-23T14:43:21;2.25;;;0.60;;
29202;SDS011;16245;51.170;4.884;2022-08-23T14:45:47;1.40;;;0.90;;
29202;SDS011;16245;51.170;4.884;2022-08-23T14:48:13;1.85;;;0.90;;
29202;SDS011;16245;51.170;4.884;2022-08-23T14:50:39;0.80;;;0.70;;
29202;SDS011;16245;51.170;4.884;2022-08-23T14:53:05;1.50;;;0.82;;
29202;SDS011;16245;51.170;4.884;2022-08-23T14:55:32;1.50;;;0.82;;
29202;SDS011;16245;51.170;4.884;2022-08-23T14:57:57;1.40;;;0.60;;
29202;SDS011;16245;51.170;4.884;2022-08-23T15:00:24;7.20;;;1.80;;
29202;SDS011;16245;51.170;4.884;2022-08-23T15:02:50;1.38;;;0.80;;
29202;SDS011;16245;51.170;4.884;2022-08-23T15:05:17;1.13;;;0.93;;
29202;SDS011;16245;51.170;4.884;2022-08-23T15:07:42;2.70;;;1.00;;
29202;SDS011;16245;51.170;4.884;2022-08-23T15:10:09;2.30;;;0.98;;
29202;SDS011;16245;51.170;4.884;2022-08-23T15:12:36;1.35;;;0.80;;
29202;SDS011;16245;51.170;4.884;2022-08-23T15:15:06;3.47;;;1.08;;
29202;SDS011;16245;51.170;4.884;2022-08-23T15:17:38;2.88;;;0.70;;
29202;SDS011;16245;51.170;4.884;2022-08-23T15:20:17;4.60;;;0.73;;
29202;SDS011;16245;51.170;4.884;2022-08-23T15:22:44;1.33;;;0.40;;
29202;SDS011;16245;51.170;4.884;2022-08-23T15:25:11;9.35;;;1.10;;
29202;SDS011;16245;51.170;4.884;2022-08-23T15:27:37;0.65;;;0.55;;
29202;SDS011;16245;51.170;4.884;2022-08-23T15:30:03;2.60;;;0.90;;
29202;SDS011;16245;51.170;4.884;2022-08-23T15:32:29;1.08;;;0.73;;
29202;SDS011;16245;51.170;4.884;2022-08-23T15:34:55;3.25;;;1.05;;
29202;SDS011;16245;51.170;4.884;2022-08-23T15:37:21;0.80;;;0.60;;
29202;SDS011;16245;51.170;4.884;2022-08-23T15:39:47;2.42;;;0.80;;
29202;SDS011;16245;51.170;4.884;2022-08-23T15:42:13;2.08;;;0.80;;
29202;SDS011;16245;51.170;4.884;2022-08-23T15:44:39;1.30;;;0.77;;
29202;SDS011;16245;51.170;4.884;2022-08-23T15:47:04;1.38;;;0.70;;
29202;SDS011;16245;51.170;4.884;2022-08-23T15:49:50;1.98;;;0.73;;
29202;SDS011;16245;51.170;4.884;2022-08-23T15:52:16;3.10;;;0.80;;
29202;SDS011;16245;51.170;4.884;2022-08-23T15:54:43;0.70;;;0.57;;
29202;SDS011;16245;51.170;4.884;2022-08-23T15:57:13;2.10;;;0.82;;
29202;SDS011;16245;51.170;4.884;2022-08-23T15:59:42;1.75;;;0.75;;
29202;SDS011;16245;51.170;4.884;2022-08-23T16:02:08;2.65;;;0.90;;
29202;SDS011;16245;51.170;4.884;2022-08-23T16:04:33;1.55;;;0.68;;
29202;SDS011;16245;51.170;4.884;2022-08-23T16:07:00;1.02;;;0.70;;
29202;SDS011;16245;51.170;4.884;2022-08-23T16:09:32;1.45;;;0.70;;
29202;SDS011;16245;51.170;4.884;2022-08-23T16:12:00;2.10;;;0.80;;
29202;SDS011;16245;51.170;4.884;2022-08-23T16:14:27;3.38;;;0.98;;
29202;SDS011;16245;51.170;4.884;2022-08-23T16:16:55;1.23;;;0.80;;
29202;SDS011;16245;51.170;4.884;2022-08-23T16:19:21;1.42;;;1.00;;
29202;SDS011;16245;51.170;4.884;2022-08-23T16:21:47;1.30;;;0.90;;
29202;SDS011;16245;51.170;4.884;2022-08-23T16:24:14;1.13;;;1.00;;
29202;SDS011;16245;51.170;4.884;2022-08-23T16:26:41;0.90;;;0.80;;
29202;SDS011;16245;51.170;4.884;2022-08-23T16:29:09;0.98;;;0.95;;
29202;SDS011;16245;51.170;4.884;2022-08-23T16:31:37;2.22;;;1.15;;
29202;SDS011;16245;51.170;4.884;2022-08-23T16:34:04;2.40;;;1.10;;
29202;SDS011;16245;51.170;4.884;2022-08-23T16:36:32;2.58;;;1.33;;
29202;SDS011;16245;51.170;4.884;2022-08-23T16:38:58;2.50;;;1.10;;